sensor_id;sensor_type;location;lat;lon;timestamp;P1;durP1;ratioP1;P2;durP2;ratioP2
59161;SDS011;44942;48.936;8.260;2023-11-19T00:04:13;2.03;;;0.80;;
59161;SDS011;44942;48.936;8.260;2023-11-19T00:09:14;0.70;;;0.60;;
59161;SDS011;44942;48.936;8.260;2023-11-19T00:14:16;0.80;;;0.80;;
59161;SDS011;44942;48.936;8.260;2023-11-19T00:19:17;1.00;;;0.80;;
59161;SDS011;44942;48.936;8.260;2023-11-19T00:24:17;0.77;;;0.73;;
59161;SDS011;44942;48.936;8.260;2023-11-19T00:29:18;1.05;;;0.63;;
59161;SDS011;44942;48.936;8.260;2023-11-19T00:34:20;1.15;;;0.77;;
59161;SDS011;44942;48.936;8.260;2023-11-19T00:39:22;1.55;;;0.70;;
59161;SDS011;44942;48.936;8.260;2023-11-19T00:44:23;0.70;;;0.63;;
59161;SDS011;44942;48.936;8.260;2023-11-19T00:49:23;0.67;;;0.60;;
59161;SDS011;44942;48.936;8.260;2023-11-19T00:54:24;1.07;;;0.77;;
59161;SDS011;44942;48.936;8.260;2023-11-19T00:59:25;0.88;;;0.63;;
59161;SDS011;44942;48.936;8.260;2023-11-19T01:04:26;0.80;;;0.70;;
59161;SDS011;44942;48.936;8.260;2023-11-19T01:09:27;0.50;;;0.50;;
59161;SDS011;44942;48.936;8.260;2023-11-19T01:14:28;2.17;;;0.70;;
59161;SDS011;44942;48.936;8.260;2023-11-19T01:19:29;1.70;;;0.60;;
59161;SDS011;44942;48.936;8.260;2023-11-19T01:24:31;0.60;;;0.60;;
59161;SDS011;44942;48.936;8.260;2023-11-19T01:29:31;0.60;;;0.60;;
59161;SDS011;44942;48.936;8.260;2023-11-19T01:34:32;0.43;;;0.43;;
59161;SDS011;44942;48.936;8.260;2023-11-19T01:39:32;1.20;;;0.67;;
59161;SDS011;44942;48.936;8.260;2023-11-19T01:44:33;1.50;;;0.50;;
59161;SDS011;44942;48.936;8.260;2023-11-19T01:49:33;0.73;;;0.50;;
59161;SDS011;44942;48.936;8.260;2023-11-19T01:54:34;0.65;;;0.52;;
59161;SDS011;44942;48.936;8.260;2023-11-19T01:59:35;0.47;;;0.40;;
59161;SDS011;44942;48.936;8.260;2023-11-19T02:04:36;0.40;;;0.40;;
59161;SDS011;44942;48.936;8.260;2023-11-19T02:09:38;0.40;;;0.40;;
59161;SDS011;44942;48.936;8.260;2023-11-19T02:14:38;0.30;;;0.30;;
59161;SDS011;44942;48.936;8.260;2023-11-19T02:19:39;0.37;;;0.37;;
59161;SDS011;44942;48.936;8.260;2023-11-19T02:24:39;0.50;;;0.50;;
59161;SDS011;44942;48.936;8.260;2023-11-19T02:34:42;0.40;;;0.40;;
59161;SDS011;44942;48.936;8.260;2023-11-19T02:39:43;0.30;;;0.30;;
59161;SDS011;44942;48.936;8.260;2023-11-19T02:44:44;0.45;;;0.45;;
59161;SDS011;44942;48.936;8.260;2023-11-19T02:49:45;0.80;;;0.50;;
59161;SDS011;44942;48.936;8.260;2023-11-19T02:54:46;0.40;;;0.40;;
59161;SDS011;44942;48.936;8.260;2023-11-19T02:59:47;0.30;;;0.30;;
59161;SDS011;44942;48.936;8.260;2023-11-19T03:04:47;0.63;;;0.60;;
59161;SDS011;44942;48.936;8.260;2023-11-19T03:09:48;0.43;;;0.43;;
59161;SDS011;44942;48.936;8.260;2023-11-19T03:14:49;0.45;;;0.45;;
59161;SDS011;44942;48.936;8.260;2023-11-19T03:19:50;0.50;;;0.50;;
59161;SDS011;44942;48.936;8.260;2023-11-19T03:24:51;0.33;;;0.33;;
59161;SDS011;44942;48.936;8.260;2023-11-19T03:29:51;0.40;;;0.40;;
59161;SDS011;44942;48.936;8.260;2023-11-19T03:34:52;0.77;;;0.40;;
59161;SDS011;44942;48.936;8.260;2023-11-19T03:39:58;0.67;;;0.40;;
59161;SDS011;44942;48.936;8.260;2023-11-19T03:44:59;0.60;;;0.50;;
59161;SDS011;44942;48.936;8.260;2023-11-19T03:50:00;0.70;;;0.53;;
59161;SDS011;44942;48.936;8.260;2023-11-19T03:55:01;0.50;;;0.50;;
59161;SDS011;44942;48.936;8.260;2023-11-19T04:00:05;0.43;;;0.40;;
59161;SDS011;44942;48.936;8.260;2023-11-19T04:05:10;0.45;;;0.43;;
59161;SDS011;44942;48.936;8.260;2023-11-19T04:10:11;0.87;;;0.60;;
59161;SDS011;44942;48.936;8.260;2023-11-19T04:15:11;0.50;;;0.37;;
59161;SDS011;44942;48.936;8.260;2023-11-19T04:20:13;0.63;;;0.40;;
59161;SDS011;44942;48.936;8.260;2023-11-19T04:25:14;0.55;;;0.40;;
59161;SDS011;44942;48.936;8.260;2023-11-19T04:30:15;0.75;;;0.43;;
59161;SDS011;44942;48.936;8.260;2023-11-19T04:35:15;0.37;;;0.37;;
59161;SDS011;44942;48.936;8.260;2023-11-19T04:40:16;0.82;;;0.40;;
59161;SDS011;44942;48.936;8.260;2023-11-19T04:45:18;0.40;;;0.40;;
59161;SDS011;44942;48.936;8.260;2023-11-19T04:50:19;0.73;;;0.50;;
59161;SDS011;44942;48.936;8.260;2023-11-19T04:55:19;0.40;;;0.40;;
59161;SDS011;44942;48.936;8.260;2023-11-19T05:00:21;0.40;;;0.40;;
59161;SDS011;44942;48.936;8.260;2023-11-19T05:05:22;0.40;;;0.40;;
59161;SDS011;44942;48.936;8.260;2023-11-19T05:10:22;0.70;;;0.40;;
59161;SDS011;44942;48.936;8.260;2023-11-19T05:15:24;0.80;;;0.40;;
59161;SDS011;44942;48.936;8.260;2023-11-19T05:20:25;0.40;;;0.40;;
59161;SDS011;44942;48.936;8.260;2023-11-19T05:25:26;0.50;;;0.30;;
59161;SDS011;44942;48.936;8.260;2023-11-19T05:30:27;2.17;;;0.45;;
59161;SDS011;44942;48.936;8.260;2023-11-19T05:35:27;0.50;;;0.30;;
59161;SDS011;44942;48.936;8.260;2023-11-19T05:40:28;1.00;;;0.40;;
59161;SDS011;44942;48.936;8.260;2023-11-19T05:45:28;0.77;;;0.40;;
59161;SDS011;44942;48.936;8.260;2023-11-19T05:50:29;0.50;;;0.40;;
59161;SDS011;44942;48.936;8.260;2023-11-19T05:55:30;1.13;;;0.30;;
59161;SDS011;44942;48.936;8.260;2023-11-19T06:00:31;0.20;;;0.20;;
59161;SDS011;44942;48.936;8.260;2023-11-19T06:05:31;0.27;;;0.20;;
59161;SDS011;44942;48.936;8.260;2023-11-19T06:10:32;0.23;;;0.20;;
59161;SDS011;44942;48.936;8.260;2023-11-19T06:15:33;0.27;;;0.27;;
59161;SDS011;44942;48.936;8.260;2023-11-19T06:20:33;0.10;;;0.10;;
59161;SDS011;44942;48.936;8.260;2023-11-19T06:25:34;0.20;;;0.20;;
59161;SDS011;44942;48.936;8.260;2023-11-19T06:30:35;0.47;;;0.30;;
59161;SDS011;44942;48.936;8.260;2023-11-19T06:35:36;0.85;;;0.32;;
59161;SDS011;44942;48.936;8.260;2023-11-19T06:40:36;0.20;;;0.20;;
59161;SDS011;44942;48.936;8.260;2023-11-19T06:45:37;0.20;;;0.20;;
59161;SDS011;44942;48.936;8.260;2023-11-19T06:50:37;0.50;;;0.23;;
59161;SDS011;44942;48.936;8.260;2023-11-19T06:55:38;0.20;;;0.20;;
59161;SDS011;44942;48.936;8.260;2023-11-19T07:00:39;0.30;;;0.20;;
59161;SDS011;44942;48.936;8.260;2023-11-19T07:05:39;0.43;;;0.30;;
59161;SDS011;44942;48.936;8.260;2023-11-19T07:10:40;1.90;;;0.30;;
59161;SDS011;44942;48.936;8.260;2023-11-19T07:15:40;0.50;;;0.30;;
59161;SDS011;44942;48.936;8.260;2023-11-19T07:20:41;0.13;;;0.13;;
59161;SDS011;44942;48.936;8.260;2023-11-19T07:25:42;0.30;;;0.20;;
59161;SDS011;44942;48.936;8.260;2023-11-19T07:30:46;0.50;;;0.30;;
59161;SDS011;44942;48.936;8.260;2023-11-19T07:35:47;1.65;;;0.32;;
59161;SDS011;44942;48.936;8.260;2023-11-19T07:45:49;1.60;;;0.80;;
59161;SDS011;44942;48.936;8.260;2023-11-19T07:50:49;0.70;;;0.70;;
59161;SDS011;44942;48.936;8.260;2023-11-19T07:55:50;1.07;;;0.60;;
59161;SDS011;44942;48.936;8.260;2023-11-19T08:00:51;0.90;;;0.70;;
59161;SDS011;44942;48.936;8.260;2023-11-19T08:05:52;0.60;;;0.50;;
59161;SDS011;44942;48.936;8.260;2023-11-19T08:10:56;0.50;;;0.50;;
59161;SDS011;44942;48.936;8.260;2023-11-19T08:15:57;0.43;;;0.40;;
59161;SDS011;44942;48.936;8.260;2023-11-19T08:20:58;1.70;;;0.40;;
59161;SDS011;44942;48.936;8.260;2023-11-19T08:26:00;0.93;;;0.40;;
59161;SDS011;44942;48.936;8.260;2023-11-19T08:31:01;7.67;;;1.03;;
59161;SDS011;44942;48.936;8.260;2023-11-19T08:36:04;1.35;;;0.50;;
59161;SDS011;44942;48.936;8.260;2023-11-19T08:41:04;2.58;;;0.60;;
59161;SDS011;44942;48.936;8.260;2023-11-19T08:46:09;0.47;;;0.40;;
59161;SDS011;44942;48.936;8.260;2023-11-19T08:51:10;0.68;;;0.50;;
59161;SDS011;44942;48.936;8.260;2023-11-19T08:56:12;2.38;;;0.55;;
59161;SDS011;44942;48.936;8.260;2023-11-19T09:01:14;0.68;;;0.40;;
59161;SDS011;44942;48.936;8.260;2023-11-19T09:06:15;2.07;;;0.50;;
59161;SDS011;44942;48.936;8.260;2023-11-19T09:11:15;3.53;;;0.50;;
59161;SDS011;44942;48.936;8.260;2023-11-19T09:16:17;0.93;;;0.40;;
59161;SDS011;44942;48.936;8.260;2023-11-19T09:21:17;8.23;;;0.67;;
59161;SDS011;44942;48.936;8.260;2023-11-19T09:26:18;2.10;;;0.60;;
59161;SDS011;44942;48.936;8.260;2023-11-19T09:31:18;4.95;;;0.65;;
59161;SDS011;44942;48.936;8.260;2023-11-19T09:36:19;2.77;;;0.50;;
59161;SDS011;44942;48.936;8.260;2023-11-19T09:41:19;2.53;;;0.63;;
59161;SDS011;44942;48.936;8.260;2023-11-19T09:46:20;1.67;;;0.30;;
59161;SDS011;44942;48.936;8.260;2023-11-19T09:51:24;9.52;;;0.90;;
59161;SDS011;44942;48.936;8.260;2023-11-19T09:56:25;2.53;;;0.77;;
59161;SDS011;44942;48.936;8.260;2023-11-19T10:01:29;5.57;;;0.52;;
59161;SDS011;44942;48.936;8.260;2023-11-19T10:06:31;1.33;;;0.50;;
59161;SDS011;44942;48.936;8.260;2023-11-19T10:11:32;3.90;;;0.50;;
59161;SDS011;44942;48.936;8.260;2023-11-19T10:16:34;3.28;;;0.60;;
59161;SDS011;44942;48.936;8.260;2023-11-19T10:21:35;1.50;;;0.50;;
59161;SDS011;44942;48.936;8.260;2023-11-19T10:26:36;3.20;;;0.60;;
59161;SDS011;44942;48.936;8.260;2023-11-19T10:31:37;3.88;;;0.60;;
59161;SDS011;44942;48.936;8.260;2023-11-19T10:36:38;1.43;;;0.60;;
59161;SDS011;44942;48.936;8.260;2023-11-19T10:41:42;3.42;;;0.60;;
59161;SDS011;44942;48.936;8.260;2023-11-19T10:46:43;3.60;;;1.10;;
59161;SDS011;44942;48.936;8.260;2023-11-19T10:51:45;2.87;;;0.73;;
59161;SDS011;44942;48.936;8.260;2023-11-19T10:56:47;0.90;;;0.50;;
59161;SDS011;44942;48.936;8.260;2023-11-19T11:01:55;1.35;;;0.60;;
59161;SDS011;44942;48.936;8.260;2023-11-19T11:12:01;4.70;;;0.70;;
59161;SDS011;44942;48.936;8.260;2023-11-19T11:17:03;1.75;;;0.70;;
59161;SDS011;44942;48.936;8.260;2023-11-19T11:22:07;1.33;;;0.60;;
59161;SDS011;44942;48.936;8.260;2023-11-19T11:32:50;1.77;;;0.70;;
59161;SDS011;44942;48.936;8.260;2023-11-19T11:37:49;1.75;;;0.60;;
59161;SDS011;44942;48.936;8.260;2023-11-19T11:42:56;2.97;;;0.60;;
59161;SDS011;44942;48.936;8.260;2023-11-19T11:57:57;2.17;;;1.00;;
59161;SDS011;44942;48.936;8.260;2023-11-19T12:02:59;2.80;;;1.00;;
59161;SDS011;44942;48.936;8.260;2023-11-19T12:08:01;1.80;;;1.10;;
59161;SDS011;44942;48.936;8.260;2023-11-19T12:13:05;4.65;;;1.30;;
59161;SDS011;44942;48.936;8.260;2023-11-19T12:18:07;2.70;;;1.45;;
59161;SDS011;44942;48.936;8.260;2023-11-19T12:23:08;3.05;;;1.45;;
59161;SDS011;44942;48.936;8.260;2023-11-19T12:28:12;4.03;;;0.90;;
59161;SDS011;44942;48.936;8.260;2023-11-19T12:33:14;3.45;;;1.10;;
59161;SDS011;44942;48.936;8.260;2023-11-19T12:38:18;5.78;;;1.30;;
59161;SDS011;44942;48.936;8.260;2023-11-19T12:43:23;4.95;;;0.80;;
59161;SDS011;44942;48.936;8.260;2023-11-19T12:48:23;2.67;;;0.97;;
59161;SDS011;44942;48.936;8.260;2023-11-19T12:53:25;6.47;;;0.97;;
59161;SDS011;44942;48.936;8.260;2023-11-19T13:03:33;2.95;;;1.00;;
59161;SDS011;44942;48.936;8.260;2023-11-19T13:08:35;6.32;;;1.10;;
59161;SDS011;44942;48.936;8.260;2023-11-19T13:13:55;2.53;;;1.00;;
59161;SDS011;44942;48.936;8.260;2023-11-19T13:18:59;4.68;;;1.05;;
59161;SDS011;44942;48.936;8.260;2023-11-19T13:24:00;5.17;;;1.00;;
59161;SDS011;44942;48.936;8.260;2023-11-19T13:29:01;3.67;;;0.80;;
59161;SDS011;44942;48.936;8.260;2023-11-19T13:34:01;8.15;;;1.20;;
59161;SDS011;44942;48.936;8.260;2023-11-19T13:39:02;5.93;;;1.00;;
59161;SDS011;44942;48.936;8.260;2023-11-19T13:44:03;7.90;;;0.90;;
59161;SDS011;44942;48.936;8.260;2023-11-19T13:49:03;5.80;;;1.00;;
59161;SDS011;44942;48.936;8.260;2023-11-19T13:54:04;5.90;;;1.10;;
59161;SDS011;44942;48.936;8.260;2023-11-19T13:59:05;5.57;;;1.20;;
59161;SDS011;44942;48.936;8.260;2023-11-19T14:04:08;3.28;;;0.90;;
59161;SDS011;44942;48.936;8.260;2023-11-19T14:09:09;3.63;;;1.03;;
59161;SDS011;44942;48.936;8.260;2023-11-19T14:14:09;3.07;;;1.00;;
59161;SDS011;44942;48.936;8.260;2023-11-19T14:19:10;1.87;;;0.70;;
59161;SDS011;44942;48.936;8.260;2023-11-19T14:24:13;1.52;;;0.90;;
59161;SDS011;44942;48.936;8.260;2023-11-19T14:29:14;6.70;;;1.00;;
59161;SDS011;44942;48.936;8.260;2023-11-19T14:34:14;6.30;;;0.90;;
59161;SDS011;44942;48.936;8.260;2023-11-19T14:39:16;3.15;;;0.80;;
59161;SDS011;44942;48.936;8.260;2023-11-19T14:44:17;2.53;;;0.80;;
59161;SDS011;44942;48.936;8.260;2023-11-19T14:49:19;3.97;;;0.73;;
59161;SDS011;44942;48.936;8.260;2023-11-19T14:54:20;1.93;;;0.97;;
59161;SDS011;44942;48.936;8.260;2023-11-19T14:59:20;3.70;;;0.80;;
59161;SDS011;44942;48.936;8.260;2023-11-19T15:04:21;3.07;;;0.80;;
59161;SDS011;44942;48.936;8.260;2023-11-19T15:09:22;1.30;;;0.80;;
59161;SDS011;44942;48.936;8.260;2023-11-19T15:14:22;2.70;;;0.73;;
59161;SDS011;44942;48.936;8.260;2023-11-19T15:19:23;4.57;;;0.80;;
59161;SDS011;44942;48.936;8.260;2023-11-19T15:24:24;3.27;;;0.73;;
59161;SDS011;44942;48.936;8.260;2023-11-19T15:34:25;3.23;;;0.90;;
59161;SDS011;44942;48.936;8.260;2023-11-19T15:39:26;2.87;;;0.93;;
59161;SDS011;44942;48.936;8.260;2023-11-19T15:44:29;3.83;;;0.80;;
59161;SDS011;44942;48.936;8.260;2023-11-19T15:49:29;2.30;;;0.93;;
59161;SDS011;44942;48.936;8.260;2023-11-19T15:59:31;1.80;;;0.87;;
59161;SDS011;44942;48.936;8.260;2023-11-19T16:04:32;1.57;;;0.80;;
59161;SDS011;44942;48.936;8.260;2023-11-19T16:09:32;1.50;;;0.70;;
59161;SDS011;44942;48.936;8.260;2023-11-19T16:14:33;1.10;;;0.80;;
59161;SDS011;44942;48.936;8.260;2023-11-19T16:29:37;3.30;;;1.17;;
59161;SDS011;44942;48.936;8.260;2023-11-19T16:34:38;2.07;;;1.00;;
59161;SDS011;44942;48.936;8.260;2023-11-19T16:39:42;2.78;;;1.25;;
59161;SDS011;44942;48.936;8.260;2023-11-19T16:44:43;3.25;;;1.40;;
59161;SDS011;44942;48.936;8.260;2023-11-19T16:49:44;2.30;;;1.67;;
59161;SDS011;44942;48.936;8.260;2023-11-19T16:54:45;3.77;;;1.77;;
59161;SDS011;44942;48.936;8.260;2023-11-19T16:59:45;8.40;;;2.90;;
59161;SDS011;44942;48.936;8.260;2023-11-19T17:04:48;7.28;;;3.38;;
59161;SDS011;44942;48.936;8.260;2023-11-19T17:09:49;9.55;;;4.50;;
59161;SDS011;44942;48.936;8.260;2023-11-19T17:14:49;13.73;;;5.17;;
59161;SDS011;44942;48.936;8.260;2023-11-19T17:19:52;9.68;;;4.80;;
59161;SDS011;44942;48.936;8.260;2023-11-19T17:24:53;14.03;;;4.90;;
59161;SDS011;44942;48.936;8.260;2023-11-19T17:29:54;25.92;;;5.20;;
59161;SDS011;44942;48.936;8.260;2023-11-19T17:34:56;14.68;;;5.68;;
59161;SDS011;44942;48.936;8.260;2023-11-19T17:39:57;14.00;;;4.80;;
59161;SDS011;44942;48.936;8.260;2023-11-19T17:44:57;14.40;;;4.80;;
59161;SDS011;44942;48.936;8.260;2023-11-19T17:50:01;13.48;;;4.13;;
59161;SDS011;44942;48.936;8.260;2023-11-19T17:55:03;11.88;;;3.70;;
59161;SDS011;44942;48.936;8.260;2023-11-19T18:00:05;12.38;;;4.32;;
59161;SDS011;44942;48.936;8.260;2023-11-19T18:10:17;13.70;;;4.03;;
59161;SDS011;44942;48.936;8.260;2023-11-19T18:15:17;12.83;;;3.93;;
59161;SDS011;44942;48.936;8.260;2023-11-19T18:20:18;9.95;;;3.65;;
59161;SDS011;44942;48.936;8.260;2023-11-19T18:25:19;10.40;;;3.17;;
59161;SDS011;44942;48.936;8.260;2023-11-19T18:30:20;9.18;;;3.58;;
59161;SDS011;44942;48.936;8.260;2023-11-19T18:35:21;17.00;;;3.25;;
59161;SDS011;44942;48.936;8.260;2023-11-19T18:40:25;18.42;;;3.38;;
59161;SDS011;44942;48.936;8.260;2023-11-19T18:45:25;9.27;;;3.17;;
59161;SDS011;44942;48.936;8.260;2023-11-19T18:50:26;11.47;;;3.60;;
59161;SDS011;44942;48.936;8.260;2023-11-19T18:55:27;10.67;;;3.00;;
59161;SDS011;44942;48.936;8.260;2023-11-19T19:00:29;10.05;;;2.83;;
59161;SDS011;44942;48.936;8.260;2023-11-19T19:10:31;8.33;;;3.00;;
59161;SDS011;44942;48.936;8.260;2023-11-19T19:15:31;9.03;;;2.60;;
59161;SDS011;44942;48.936;8.260;2023-11-19T19:20:32;5.77;;;2.20;;
59161;SDS011;44942;48.936;8.260;2023-11-19T19:25:34;11.48;;;2.65;;
59161;SDS011;44942;48.936;8.260;2023-11-19T19:30:35;8.80;;;2.45;;
59161;SDS011;44942;48.936;8.260;2023-11-19T19:40:37;7.23;;;2.07;;
59161;SDS011;44942;48.936;8.260;2023-11-19T19:50:39;8.07;;;2.53;;
59161;SDS011;44942;48.936;8.260;2023-11-19T19:55:39;6.40;;;2.47;;
59161;SDS011;44942;48.936;8.260;2023-11-19T20:00:40;4.73;;;1.80;;
59161;SDS011;44942;48.936;8.260;2023-11-19T20:05:40;3.73;;;1.77;;
59161;SDS011;44942;48.936;8.260;2023-11-19T20:10:41;5.30;;;2.00;;
59161;SDS011;44942;48.936;8.260;2023-11-19T20:15:41;5.83;;;1.73;;
59161;SDS011;44942;48.936;8.260;2023-11-19T20:20:44;6.65;;;2.17;;
59161;SDS011;44942;48.936;8.260;2023-11-19T20:25:48;4.47;;;1.88;;
59161;SDS011;44942;48.936;8.260;2023-11-19T20:30:48;4.65;;;1.73;;
59161;SDS011;44942;48.936;8.260;2023-11-19T20:35:49;5.00;;;1.57;;
59161;SDS011;44942;48.936;8.260;2023-11-19T20:40:49;4.33;;;1.67;;
59161;SDS011;44942;48.936;8.260;2023-11-19T20:45:50;5.13;;;2.00;;
59161;SDS011;44942;48.936;8.260;2023-11-19T20:50:51;5.50;;;1.98;;
59161;SDS011;44942;48.936;8.260;2023-11-19T20:55:51;4.90;;;1.53;;
59161;SDS011;44942;48.936;8.260;2023-11-19T21:00:52;4.80;;;1.57;;
59161;SDS011;44942;48.936;8.260;2023-11-19T21:05:53;4.07;;;1.57;;
59161;SDS011;44942;48.936;8.260;2023-11-19T21:10:56;4.05;;;1.73;;
59161;SDS011;44942;48.936;8.260;2023-11-19T21:16:00;4.07;;;1.50;;
59161;SDS011;44942;48.936;8.260;2023-11-19T21:21:01;3.47;;;1.67;;
59161;SDS011;44942;48.936;8.260;2023-11-19T21:26:04;4.03;;;1.60;;
59161;SDS011;44942;48.936;8.260;2023-11-19T21:31:05;5.55;;;1.42;;
59161;SDS011;44942;48.936;8.260;2023-11-19T21:36:06;3.65;;;1.92;;
59161;SDS011;44942;48.936;8.260;2023-11-19T21:41:07;5.60;;;1.70;;
59161;SDS011;44942;48.936;8.260;2023-11-19T21:46:07;4.37;;;1.60;;
59161;SDS011;44942;48.936;8.260;2023-11-19T21:51:08;4.83;;;1.73;;
59161;SDS011;44942;48.936;8.260;2023-11-19T21:56:08;4.10;;;1.60;;
59161;SDS011;44942;48.936;8.260;2023-11-19T22:01:09;7.40;;;1.60;;
59161;SDS011;44942;48.936;8.260;2023-11-19T22:06:15;5.63;;;1.80;;
59161;SDS011;44942;48.936;8.260;2023-11-19T22:11:16;3.63;;;1.30;;
59161;SDS011;44942;48.936;8.260;2023-11-19T22:16:17;4.18;;;1.48;;
59161;SDS011;44942;48.936;8.260;2023-11-19T22:21:18;8.13;;;1.70;;
59161;SDS011;44942;48.936;8.260;2023-11-19T22:26:18;3.20;;;1.40;;
59161;SDS011;44942;48.936;8.260;2023-11-19T22:31:19;5.23;;;1.50;;
59161;SDS011;44942;48.936;8.260;2023-11-19T22:36:19;6.30;;;1.73;;
59161;SDS011;44942;48.936;8.260;2023-11-19T22:41:22;4.05;;;1.70;;
59161;SDS011;44942;48.936;8.260;2023-11-19T22:46:23;3.53;;;1.60;;
59161;SDS011;44942;48.936;8.260;2023-11-19T22:51:23;3.83;;;1.53;;
59161;SDS011;44942;48.936;8.260;2023-11-19T22:56:24;3.13;;;1.53;;
59161;SDS011;44942;48.936;8.260;2023-11-19T23:01:24;2.93;;;1.30;;
59161;SDS011;44942;48.936;8.260;2023-11-19T23:06:25;4.23;;;1.67;;
59161;SDS011;44942;48.936;8.260;2023-11-19T23:11:26;3.80;;;1.20;;
59161;SDS011;44942;48.936;8.260;2023-11-19T23:16:26;3.87;;;1.40;;
59161;SDS011;44942;48.936;8.260;2023-11-19T23:21:27;2.75;;;1.33;;
59161;SDS011;44942;48.936;8.260;2023-11-19T23:26:27;4.40;;;1.33;;
59161;SDS011;44942;48.936;8.260;2023-11-19T23:36:29;2.80;;;1.43;;
59161;SDS011;44942;48.936;8.260;2023-11-19T23:41:30;2.63;;;1.30;;
59161;SDS011;44942;48.936;8.260;2023-11-19T23:46:30;2.80;;;1.10;;
59161;SDS011;44942;48.936;8.260;2023-11-19T23:51:31;4.63;;;1.60;;
59161;SDS011;44942;48.936;8.260;2023-11-19T23:56:31;4.10;;;1.50;;
